createdAt,value
2019-02-23T00:00:47.220Z,98.39
2019-02-23T00:01:47.654Z,98.42
2019-02-23T00:02:48.543Z,98.33
2019-02-23T00:03:49.009Z,98.42
2019-02-23T00:04:49.849Z,98.31
2019-02-23T00:05:50.330Z,98.57
2019-02-23T00:06:50.916Z,98.58
2019-02-23T00:07:51.136Z,98.42
2019-02-23T00:08:51.992Z,98.86
2019-02-23T00:09:52.799Z,98.40
2019-02-23T00:10:53.283Z,99.19
2019-02-23T00:11:02.336Z,99.04
2019-02-23T00:12:04.666Z,99.04
2019-02-23T00:13:03.583Z,98.81
2019-02-23T00:14:08.050Z,98.59
2019-02-23T00:15:04.525Z,99.03
2019-02-23T00:16:06.395Z,98.93
2019-02-23T00:17:07.069Z,98.27
2019-02-23T00:18:07.620Z,98.27
2019-02-23T00:19:08.120Z,98.26
2019-02-23T00:20:09.008Z,98.79
2019-02-23T00:21:09.533Z,98.91
2019-02-23T00:22:10.247Z,98.46
2019-02-23T00:23:11.106Z,98.69
2019-02-23T00:24:11.207Z,99.03
2019-02-23T00:25:11.956Z,98.89
2019-02-23T00:26:12.578Z,99.11
2019-02-23T00:27:13.186Z,98.93
2019-02-23T00:28:12.199Z,98.87
2019-02-23T00:29:12.968Z,98.95
2019-02-23T00:30:14.943Z,98.51
2019-02-23T00:31:15.747Z,98.30
2019-02-23T00:32:15.874Z,98.58
2019-02-23T00:33:16.625Z,98.62
2019-02-23T00:34:16.770Z,98.42
2019-02-23T00:35:16.451Z,98.19
2019-02-23T00:36:17.764Z,98.13
2019-02-23T00:37:18.360Z,98.38
2019-02-23T00:38:18.896Z,98.61
2019-02-23T00:39:19.364Z,98.29
2019-02-23T00:40:19.992Z,98.14
2019-02-23T00:41:20.846Z,97.89
2019-02-23T00:42:20.924Z,97.87
2019-02-23T00:43:21.890Z,98.37
2019-02-23T00:44:21.499Z,97.95
2019-02-23T00:45:23.211Z,98.15
2019-02-23T00:46:22.712Z,98.18
2019-02-23T00:47:23.233Z,98.00
2019-02-23T00:48:26.040Z,97.79
2019-02-23T00:49:35.973Z,97.68
2019-02-23T00:50:25.300Z,98.05
2019-02-23T00:51:27.153Z,98.28
2019-02-23T00:52:27.629Z,98.59
2019-02-23T00:53:28.433Z,98.53
2019-02-23T00:54:29.027Z,98.64
2019-02-23T00:55:29.872Z,98.78
2019-02-23T00:56:29.355Z,98.36
2019-02-23T00:57:30.843Z,98.46
2019-02-23T00:58:31.481Z,98.34
2019-02-23T00:59:32.309Z,98.52
2019-02-23T01:00:33.030Z,98.23
2019-02-23T01:01:33.862Z,98.75
2019-02-23T01:02:34.546Z,98.78
2019-02-23T01:03:35.260Z,99.55
2019-02-23T01:03:45.380Z,99.58
2019-02-23T01:04:45.931Z,99.55
2019-02-23T01:05:46.689Z,99.63
2019-02-23T01:06:48.267Z,99.52
2019-02-23T01:07:48.740Z,99.35
2019-02-23T01:08:49.531Z,99.17
2019-02-23T01:09:50.240Z,99.15
2019-02-23T01:10:57.649Z,99.58
2019-02-23T01:11:50.433Z,100.20
2019-02-23T01:12:52.035Z,100.39
2019-02-23T01:13:52.958Z,100.41
2019-02-23T01:14:52.951Z,100.29
2019-02-23T01:15:53.237Z,100.14
2019-02-23T01:16:52.265Z,100.21
2019-02-23T01:17:53.930Z,99.98
2019-02-23T01:18:54.555Z,100.20
2019-02-23T01:19:55.362Z,100.21
2019-02-23T01:20:54.984Z,99.62
2019-02-23T01:21:55.814Z,99.64
2019-02-23T01:22:56.970Z,99.96
2019-02-23T01:23:56.613Z,100.20
2019-02-23T01:24:57.246Z,99.83
2019-02-23T01:25:57.882Z,100.45
2019-02-23T01:26:57.831Z,99.71
2019-02-23T01:27:59.099Z,99.77
2019-02-23T01:28:59.795Z,99.50
2019-02-23T01:29:58.872Z,99.73
2019-02-23T01:30:59.611Z,99.47
2019-02-23T01:32:01.327Z,99.33
2019-02-23T01:33:02.074Z,99.90
2019-02-23T01:34:02.913Z,99.88
2019-02-23T01:35:03.491Z,99.81
2019-02-23T01:36:04.417Z,99.83
2019-02-23T01:37:05.047Z,99.78
2019-02-23T01:38:05.674Z,100.08
2019-02-23T01:39:05.675Z,100.18
2019-02-23T01:40:06.249Z,99.85
2019-02-23T01:41:06.816Z,99.71
2019-02-23T01:42:07.515Z,99.43
2019-02-23T01:43:07.924Z,99.27
2019-02-23T01:44:06.958Z,99.19
2019-02-23T01:45:08.878Z,98.95
2019-02-23T01:46:09.746Z,98.83
2019-02-23T01:47:10.352Z,98.66
2019-02-23T01:48:11.141Z,98.48
2019-02-23T01:49:12.107Z,98.24
2019-02-23T01:50:11.808Z,98.00
2019-02-23T01:51:12.159Z,98.12
2019-02-23T01:52:13.763Z,98.07
2019-02-23T01:53:13.554Z,97.83
2019-02-23T01:54:15.266Z,97.49
2019-02-23T01:55:15.017Z,97.19
2019-02-23T01:56:16.773Z,97.16
2019-02-23T01:57:16.641Z,97.07
2019-02-23T01:58:17.389Z,96.88
2019-02-23T01:59:17.344Z,96.85
2019-02-23T02:00:17.779Z,96.84
2019-02-23T02:01:19.448Z,96.74
2019-02-23T02:02:19.957Z,96.55
2019-02-23T02:03:20.609Z,96.49
2019-02-23T02:04:21.296Z,96.65
2019-02-23T02:04:31.852Z,96.62
2019-02-23T02:05:33.643Z,96.61
2019-02-23T02:06:33.771Z,96.61
2019-02-23T02:07:34.661Z,96.16
2019-02-23T02:08:35.350Z,96.24
2019-02-23T02:09:35.149Z,96.27
2019-02-23T02:10:36.965Z,96.17
2019-02-23T02:11:37.843Z,95.94
2019-02-23T02:12:37.429Z,95.87
2019-02-23T02:13:39.147Z,95.87
2019-02-23T02:14:39.636Z,95.93
2019-02-23T02:15:40.398Z,96.03
2019-02-23T02:16:41.019Z,95.93
2019-02-23T02:17:41.617Z,95.73
2019-02-23T02:18:42.081Z,95.81
2019-02-23T02:19:42.644Z,95.77
2019-02-23T02:20:43.509Z,95.72
2019-02-23T02:21:43.987Z,95.85
2019-02-23T02:22:44.836Z,95.65
2019-02-23T02:23:44.397Z,95.69
2019-02-23T02:24:45.876Z,95.80
2019-02-23T02:25:46.327Z,95.93
2019-02-23T02:26:46.900Z,95.94
2019-02-23T02:27:47.591Z,96.22
2019-02-23T02:28:48.482Z,96.17
2019-02-23T02:29:49.005Z,96.05
2019-02-23T02:30:49.508Z,96.14
2019-02-23T02:31:50.113Z,96.02
2019-02-23T02:32:50.656Z,96.02
2019-02-23T02:33:51.098Z,96.04
2019-02-23T02:34:51.584Z,95.98
2019-02-23T02:35:52.164Z,95.87
2019-02-23T02:36:52.798Z,95.79
2019-02-23T02:37:53.315Z,95.55
2019-02-23T02:38:53.986Z,95.52
2019-02-23T02:39:53.462Z,95.55
2019-02-23T02:40:54.125Z,95.55
2019-02-23T02:41:55.628Z,94.97
2019-02-23T02:42:56.195Z,95.06
2019-02-23T02:43:56.935Z,95.32
2019-02-23T02:44:57.670Z,95.11
2019-02-23T02:45:58.251Z,95.13
2019-02-23T02:46:59.091Z,95.12
2019-02-23T02:47:59.760Z,94.65
2019-02-23T02:49:00.437Z,94.64
2019-02-23T02:50:01.122Z,94.61
2019-02-23T02:51:01.834Z,94.22
2019-02-23T02:52:02.567Z,94.44
2019-02-23T02:52:11.622Z,94.53
2019-02-23T02:53:13.092Z,94.53
2019-02-23T02:54:13.647Z,94.51
2019-02-23T02:55:14.632Z,94.59
2019-02-23T02:56:15.597Z,94.64
2019-02-23T02:57:16.086Z,94.47
2019-02-23T02:58:16.333Z,94.39
2019-02-23T02:59:16.918Z,94.32
2019-02-23T03:00:17.655Z,94.36
2019-02-23T03:01:17.919Z,94.32
2019-02-23T03:02:18.453Z,94.37
2019-02-23T03:03:19.031Z,94.16
2019-02-23T03:04:19.541Z,94.01
2019-02-23T03:05:20.118Z,93.64
2019-02-23T03:06:20.707Z,93.40
2019-02-23T03:07:21.478Z,93.28
2019-02-23T03:08:21.994Z,93.32
2019-02-23T03:09:22.494Z,93.43
2019-02-23T03:10:23.126Z,93.46
2019-02-23T03:11:23.613Z,93.58
2019-02-23T03:12:24.085Z,93.39
2019-02-23T03:13:24.687Z,93.37
2019-02-23T03:14:25.127Z,93.60
2019-02-23T03:15:25.571Z,93.85
2019-02-23T03:16:26.118Z,93.62
2019-02-23T03:17:26.687Z,93.59
2019-02-23T03:18:27.298Z,93.69
2019-02-23T03:19:27.942Z,94.19
2019-02-23T03:20:36.585Z,94.14
2019-02-23T03:21:28.306Z,93.58
2019-02-23T03:22:30.115Z,93.34
2019-02-23T03:23:30.967Z,93.06
2019-02-23T03:24:31.491Z,92.54
2019-02-23T03:25:31.858Z,92.66
2019-02-23T03:26:32.369Z,92.67
2019-02-23T03:27:33.176Z,92.51
2019-02-23T03:28:33.359Z,91.86
2019-02-23T03:29:33.801Z,92.10
2019-02-23T03:30:34.291Z,92.02
2019-02-23T03:31:34.731Z,91.50
2019-02-23T03:32:35.619Z,91.85
2019-02-23T03:33:36.391Z,91.90
2019-02-23T03:34:36.984Z,91.82
2019-02-23T03:35:37.429Z,92.21
2019-02-23T03:35:46.527Z,92.01
2019-02-23T03:36:47.968Z,92.03
2019-02-23T03:37:48.496Z,92.06
2019-02-23T03:38:49.071Z,92.19
2019-02-23T03:39:49.908Z,92.19
2019-02-23T03:40:50.663Z,91.76
2019-02-23T03:41:51.245Z,91.72
2019-02-23T03:42:51.805Z,92.30
2019-02-23T03:43:52.320Z,91.42
2019-02-23T03:44:52.916Z,91.75
2019-02-23T03:45:53.557Z,91.86
2019-02-23T03:46:54.291Z,91.69
2019-02-23T03:47:55.034Z,91.74
2019-02-23T03:48:55.627Z,91.50
2019-02-23T03:49:56.220Z,91.37
2019-02-23T03:50:56.881Z,91.27
2019-02-23T03:51:57.305Z,91.17
2019-02-23T03:52:57.843Z,91.31
2019-02-23T03:53:58.531Z,91.18
2019-02-23T03:54:59.199Z,91.10
2019-02-23T03:55:59.779Z,90.87
2019-02-23T03:57:00.317Z,90.77
2019-02-23T03:58:00.877Z,91.12
2019-02-23T03:59:01.760Z,91.16
2019-02-23T04:00:01.807Z,90.88
2019-02-23T04:01:02.367Z,90.82
2019-02-23T04:02:02.928Z,90.88
2019-02-23T04:03:03.422Z,90.56
2019-02-23T04:04:03.998Z,90.59
2019-02-23T04:05:04.613Z,90.23
2019-02-23T04:06:05.321Z,90.64
2019-02-23T04:07:06.022Z,90.46
2019-02-23T04:08:06.721Z,89.90
2019-02-23T04:09:07.350Z,90.11
2019-02-23T04:10:07.799Z,89.99
2019-02-23T04:11:08.507Z,89.80
2019-02-23T04:12:09.021Z,89.35
2019-02-23T04:13:09.866Z,89.27
2019-02-23T04:14:10.772Z,89.60
2019-02-23T04:15:11.437Z,89.69
2019-02-23T04:16:12.073Z,89.54
2019-02-23T04:17:12.623Z,89.14
2019-02-23T04:18:13.117Z,89.52
2019-02-23T04:19:13.712Z,89.60
2019-02-23T04:20:14.178Z,89.29
2019-02-23T04:20:25.255Z,89.41
2019-02-23T04:21:25.941Z,89.40
2019-02-23T04:22:27.455Z,89.26
2019-02-23T04:23:27.979Z,88.83
2019-02-23T04:24:28.529Z,88.92
2019-02-23T04:25:28.985Z,88.83
2019-02-23T04:26:29.832Z,88.67
2019-02-23T04:27:30.464Z,89.36
2019-02-23T04:28:31.185Z,89.30
2019-02-23T04:29:31.791Z,89.15
2019-02-23T04:30:32.238Z,89.12
2019-02-23T04:31:33.134Z,89.15
2019-02-23T04:32:33.785Z,89.37
2019-02-23T04:33:34.503Z,89.31
2019-02-23T04:34:35.106Z,89.50
2019-02-23T04:35:35.600Z,88.98
2019-02-23T04:36:36.150Z,89.02
2019-02-23T04:37:36.727Z,89.03
2019-02-23T04:38:37.451Z,88.55
2019-02-23T04:39:38.121Z,88.12
2019-02-23T04:40:38.265Z,88.06
2019-02-23T04:41:38.926Z,88.30
2019-02-23T04:42:39.433Z,88.94
2019-02-23T04:43:40.042Z,88.85
2019-02-23T04:44:40.642Z,89.20
2019-02-23T04:45:41.190Z,89.21
2019-02-23T04:46:41.867Z,88.84
2019-02-23T04:47:42.555Z,88.61
2019-02-23T04:48:43.129Z,88.38
2019-02-23T04:49:43.635Z,88.33
2019-02-23T04:50:44.203Z,87.94
2019-02-23T04:51:44.683Z,88.37
2019-02-23T04:52:45.324Z,88.44
2019-02-23T04:53:45.778Z,88.41
2019-02-23T04:54:46.206Z,87.97
2019-02-23T04:55:46.704Z,87.61
2019-02-23T04:56:47.364Z,87.76
2019-02-23T04:57:47.784Z,87.53
2019-02-23T04:58:48.223Z,87.49
2019-02-23T04:59:48.958Z,87.85
2019-02-23T05:00:49.603Z,87.70
2019-02-23T05:01:50.093Z,87.62
2019-02-23T05:02:50.711Z,87.45
2019-02-23T05:03:51.373Z,87.48
2019-02-23T05:04:51.985Z,87.27
2019-02-23T05:05:01.038Z,86.96
2019-02-23T05:06:02.646Z,86.88
2019-02-23T05:07:03.148Z,87.13
2019-02-23T05:08:03.859Z,87.00
2019-02-23T05:09:04.340Z,87.06
2019-02-23T05:10:04.869Z,86.88
2019-02-23T05:11:05.819Z,86.64
2019-02-23T05:12:06.507Z,86.26
2019-02-23T05:13:07.028Z,86.21
2019-02-23T05:14:07.622Z,86.71
2019-02-23T05:15:08.441Z,86.85
2019-02-23T05:16:09.268Z,86.51
2019-02-23T05:17:09.798Z,87.09
2019-02-23T05:18:10.262Z,86.68
2019-02-23T05:19:10.901Z,84.92
2019-02-23T05:20:11.383Z,85.23
2019-02-23T05:21:12.155Z,85.82
2019-02-23T05:22:12.990Z,86.01
2019-02-23T05:23:13.539Z,86.32
2019-02-23T05:24:14.071Z,86.27
2019-02-23T05:25:14.623Z,86.20
2019-02-23T05:26:15.256Z,86.57
2019-02-23T05:27:16.056Z,85.59
2019-02-23T05:28:16.636Z,85.11
2019-02-23T05:29:17.112Z,85.53
2019-02-23T05:30:17.809Z,85.69
2019-02-23T05:31:17.963Z,85.47
2019-02-23T05:32:18.431Z,85.70
2019-02-23T05:33:19.091Z,85.38
2019-02-23T05:34:18.829Z,85.03
2019-02-23T05:35:19.905Z,84.65
2019-02-23T05:36:20.711Z,84.74
2019-02-23T05:37:21.252Z,85.00
2019-02-23T05:38:22.023Z,85.44
2019-02-23T05:39:21.366Z,85.84
2019-02-23T05:40:23.230Z,85.55
2019-02-23T05:41:23.692Z,84.94
2019-02-23T05:42:24.361Z,84.80
2019-02-23T05:43:24.771Z,85.05
2019-02-23T05:44:25.520Z,85.12
2019-02-23T05:45:26.197Z,85.07
2019-02-23T05:46:26.698Z,85.15
2019-02-23T05:47:27.542Z,85.07
2019-02-23T05:48:28.085Z,84.80
2019-02-23T05:49:28.703Z,84.39
2019-02-23T05:50:29.206Z,84.97
2019-02-23T05:50:38.250Z,84.72
2019-02-23T05:51:39.623Z,84.73
2019-02-23T05:52:40.203Z,84.62
2019-02-23T05:53:40.586Z,84.86
2019-02-23T05:54:41.094Z,84.36
2019-02-23T05:55:41.750Z,84.22
2019-02-23T05:56:42.658Z,84.37
2019-02-23T05:57:43.502Z,84.77
2019-02-23T05:58:43.963Z,84.75
2019-02-23T05:59:44.612Z,84.82
2019-02-23T06:00:45.550Z,84.47
2019-02-23T06:01:46.135Z,85.08
2019-02-23T06:02:46.594Z,85.49
2019-02-23T06:03:47.038Z,84.74
2019-02-23T06:04:47.747Z,85.07
2019-02-23T06:05:48.414Z,84.97
2019-02-23T06:06:48.845Z,85.08
2019-02-23T06:07:49.445Z,84.88
2019-02-23T06:08:49.913Z,84.72
2019-02-23T06:09:50.506Z,85.42
2019-02-23T06:10:50.061Z,85.98
2019-02-23T06:11:51.566Z,85.36
2019-02-23T06:12:52.083Z,85.08
2019-02-23T06:13:53.558Z,85.29
2019-02-23T06:14:53.028Z,85.13
2019-02-23T06:15:53.614Z,84.98
2019-02-23T06:16:54.041Z,84.77
2019-02-23T06:17:54.661Z,84.96
2019-02-23T06:18:55.205Z,85.46
2019-02-23T06:19:55.745Z,85.53
2019-02-23T06:20:56.230Z,85.03
2019-02-23T06:21:56.954Z,84.95
2019-02-23T06:22:57.823Z,85.04
2019-02-23T06:23:58.410Z,84.14
2019-02-23T06:24:59.140Z,84.11
2019-02-23T06:25:59.566Z,84.49
2019-02-23T06:27:00.016Z,85.10
2019-02-23T06:28:00.667Z,85.22
2019-02-23T06:29:01.204Z,84.51
2019-02-23T06:30:01.646Z,84.68
2019-02-23T06:31:02.115Z,84.53
2019-02-23T06:32:02.792Z,84.89
2019-02-23T06:33:03.340Z,85.43
2019-02-23T06:34:15.413Z,85.14
2019-02-23T06:35:03.489Z,84.48
2019-02-23T06:36:05.026Z,83.83
2019-02-23T06:36:14.082Z,84.40
2019-02-23T06:37:15.307Z,84.45
2019-02-23T06:38:15.724Z,84.62
2019-02-23T06:39:16.276Z,84.99
2019-02-23T06:40:17.218Z,84.94
2019-02-23T06:41:18.162Z,85.32
2019-02-23T06:42:18.978Z,85.22
2019-02-23T06:43:19.655Z,85.00
2019-02-23T06:44:20.121Z,85.10
2019-02-23T06:45:20.699Z,84.57
2019-02-23T06:46:21.639Z,84.33
2019-02-23T06:47:22.177Z,84.46
2019-02-23T06:48:23.028Z,84.21
2019-02-23T06:49:23.941Z,84.49
2019-02-23T06:50:24.841Z,84.12
2019-02-23T06:51:24.125Z,84.35
2019-02-23T06:52:25.426Z,84.49
2019-02-23T06:53:25.962Z,84.05
2019-02-23T06:54:26.404Z,83.75
2019-02-23T06:55:26.772Z,83.94
2019-02-23T06:56:27.263Z,84.06
2019-02-23T06:57:27.726Z,84.57
2019-02-23T06:58:28.207Z,84.47
2019-02-23T06:59:28.703Z,84.36
2019-02-23T07:00:29.268Z,84.33
2019-02-23T07:01:29.788Z,84.22
2019-02-23T07:02:30.311Z,84.46
2019-02-23T07:03:30.949Z,84.49
2019-02-23T07:04:31.369Z,84.43
2019-02-23T07:05:32.044Z,83.92
2019-02-23T07:06:32.756Z,84.11
2019-02-23T07:07:33.239Z,84.50
2019-02-23T07:08:33.927Z,84.80
2019-02-23T07:09:33.733Z,84.46
2019-02-23T07:10:35.484Z,84.27
2019-02-23T07:11:35.261Z,84.04
2019-02-23T07:12:35.914Z,84.52
2019-02-23T07:13:36.372Z,84.90
2019-02-23T07:14:36.954Z,84.84
2019-02-23T07:15:37.485Z,84.49
2019-02-23T07:16:38.220Z,84.59
2019-02-23T07:17:40.154Z,84.62
2019-02-23T07:18:41.081Z,84.14
2019-02-23T07:19:41.554Z,83.96
2019-02-23T07:20:44.312Z,83.88
2019-02-23T07:21:41.800Z,83.55
2019-02-23T07:22:42.136Z,84.19
2019-02-23T07:23:43.057Z,83.98
2019-02-23T07:24:43.738Z,83.42
2019-02-23T07:25:45.244Z,83.18
2019-02-23T07:26:45.727Z,83.37
2019-02-23T07:27:46.289Z,83.73
2019-02-23T07:28:46.244Z,83.85
2019-02-23T07:29:47.815Z,84.03
2019-02-23T07:30:47.555Z,83.82
2019-02-23T07:30:58.656Z,83.05
2019-02-23T07:31:59.536Z,83.08
2019-02-23T07:32:59.142Z,83.44
2019-02-23T07:33:59.655Z,83.36
2019-02-23T07:35:00.415Z,84.02
2019-02-23T07:36:02.125Z,83.83
2019-02-23T07:37:02.588Z,83.60
2019-02-23T07:38:03.059Z,83.42
2019-02-23T07:39:03.477Z,82.80
2019-02-23T07:40:03.151Z,83.40
2019-02-23T07:41:04.860Z,83.07
2019-02-23T07:42:04.585Z,83.40
2019-02-23T07:43:06.504Z,83.32
2019-02-23T07:44:06.464Z,82.65
2019-02-23T07:45:07.174Z,82.34
2019-02-23T07:46:07.865Z,82.26
2019-02-23T07:47:08.604Z,81.97
2019-02-23T07:48:10.539Z,82.25
2019-02-23T07:49:10.161Z,83.13
2019-02-23T07:50:11.770Z,82.39
2019-02-23T07:51:11.493Z,82.83
2019-02-23T07:52:12.118Z,82.35
2019-02-23T07:53:12.765Z,82.54
2019-02-23T07:54:13.489Z,82.56
2019-02-23T07:55:14.977Z,82.18
2019-02-23T07:56:15.370Z,82.12
2019-02-23T07:57:15.863Z,81.61
2019-02-23T07:58:16.413Z,81.17
2019-02-23T07:59:17.230Z,80.72
2019-02-23T08:00:17.829Z,80.33
2019-02-23T08:01:18.570Z,80.98
2019-02-23T08:02:19.004Z,80.81
2019-02-23T08:03:19.782Z,81.22
2019-02-23T08:04:20.302Z,81.15
2019-02-23T08:05:20.569Z,81.28
2019-02-23T08:06:21.021Z,81.34
2019-02-23T08:07:21.755Z,81.28
2019-02-23T08:08:21.561Z,81.42
2019-02-23T08:09:23.020Z,81.95
2019-02-23T08:10:23.495Z,81.97
2019-02-23T08:11:23.760Z,81.92
2019-02-23T08:12:23.806Z,81.90
2019-02-23T08:13:24.308Z,81.43
2019-02-23T08:14:24.241Z,81.73
2019-02-23T08:15:25.840Z,81.26
2019-02-23T08:16:26.378Z,80.81
2019-02-23T08:17:26.865Z,80.40
2019-02-23T08:18:27.514Z,80.79
2019-02-23T08:19:28.310Z,81.00
2019-02-23T08:20:29.017Z,80.90
2019-02-23T08:21:29.526Z,81.90
2019-02-23T08:22:37.038Z,81.26
2019-02-23T08:23:29.071Z,79.85
2019-02-23T08:24:30.963Z,80.27
2019-02-23T08:25:31.483Z,80.63
2019-02-23T08:26:32.296Z,80.48
2019-02-23T08:27:31.899Z,80.62
2019-02-23T08:28:33.554Z,80.21
2019-02-23T08:28:42.602Z,80.31
2019-02-23T08:29:43.995Z,80.26
2019-02-23T08:30:44.609Z,79.76
2019-02-23T08:31:44.977Z,79.63
2019-02-23T08:32:45.721Z,79.30
2019-02-23T08:33:46.179Z,79.38
2019-02-23T08:34:46.933Z,78.93
2019-02-23T08:35:47.440Z,78.93
2019-02-23T08:36:48.239Z,78.62
2019-02-23T08:37:48.224Z,78.78
2019-02-23T08:38:48.886Z,78.29
2019-02-23T08:39:49.829Z,78.77
2019-02-23T08:40:50.442Z,78.04
2019-02-23T08:41:51.157Z,77.47
2019-02-23T08:42:51.693Z,77.78
2019-02-23T08:43:52.284Z,76.96
2019-02-23T08:44:52.911Z,76.86
2019-02-23T08:45:53.421Z,76.97
2019-02-23T08:46:53.905Z,77.25
2019-02-23T08:47:56.357Z,77.37
2019-02-23T08:48:53.919Z,77.62
2019-02-23T08:49:55.818Z,76.95
2019-02-23T08:50:56.574Z,77.84
2019-02-23T08:51:57.049Z,78.27
2019-02-23T08:52:57.689Z,78.13
2019-02-23T08:53:57.933Z,77.16
2019-02-23T08:54:57.970Z,76.72
2019-02-23T08:55:58.901Z,77.09
2019-02-23T08:56:59.382Z,77.09
2019-02-23T08:58:00.144Z,76.57
2019-02-23T08:59:00.755Z,76.79
2019-02-23T09:00:01.728Z,76.02
2019-02-23T09:01:02.656Z,76.50
2019-02-23T09:02:03.622Z,76.72
2019-02-23T09:03:02.913Z,76.50
2019-02-23T09:04:04.549Z,76.96
2019-02-23T09:05:05.176Z,76.34
2019-02-23T09:06:05.918Z,76.92
2019-02-23T09:07:06.628Z,76.63
2019-02-23T09:08:06.442Z,77.08
2019-02-23T09:09:08.257Z,76.87
2019-02-23T09:10:07.040Z,76.52
2019-02-23T09:11:11.257Z,76.85
2019-02-23T09:12:08.648Z,76.18
2019-02-23T09:13:09.312Z,76.44
2019-02-23T09:14:09.166Z,75.87
2019-02-23T09:15:10.602Z,76.38
2019-02-23T09:16:11.049Z,76.50
2019-02-23T09:17:11.519Z,75.90
2019-02-23T09:17:21.600Z,76.48
2019-02-23T09:18:22.300Z,76.41
2019-02-23T09:19:22.778Z,76.58
2019-02-23T09:20:29.182Z,76.89
2019-02-23T09:21:22.844Z,77.29
2019-02-23T09:22:24.444Z,76.79
2019-02-23T09:23:25.018Z,76.62
2019-02-23T09:24:25.466Z,76.68
2019-02-23T09:25:25.952Z,76.47
2019-02-23T09:26:25.623Z,76.84
2019-02-23T09:27:27.063Z,76.59
2019-02-23T09:28:27.508Z,76.37
2019-02-23T09:29:28.059Z,76.30
2019-02-23T09:30:28.825Z,75.55
2019-02-23T09:31:29.554Z,74.92
2019-02-23T09:32:28.946Z,74.54
2019-02-23T09:33:30.693Z,74.22
2019-02-23T09:34:31.439Z,72.63
2019-02-23T09:35:32.375Z,72.03
2019-02-23T09:36:33.107Z,71.63
2019-02-23T09:37:33.522Z,69.99
2019-02-23T09:38:34.313Z,69.78
2019-02-23T09:39:35.380Z,69.71
2019-02-23T09:40:34.810Z,68.56
2019-02-23T09:41:36.290Z,68.03
2019-02-23T09:42:36.754Z,67.68
2019-02-23T09:43:37.350Z,66.91
2019-02-23T09:44:38.138Z,66.52
2019-02-23T09:45:38.286Z,66.70
2019-02-23T09:46:38.859Z,65.80
2019-02-23T09:47:39.189Z,65.46
2019-02-23T09:48:39.983Z,65.34
2019-02-23T09:49:40.494Z,64.46
2019-02-23T09:50:41.174Z,64.62
2019-02-23T09:51:41.974Z,64.45
2019-02-23T09:52:42.748Z,64.70
2019-02-23T09:53:43.511Z,63.81
2019-02-23T09:54:43.956Z,63.23
2019-02-23T09:55:44.558Z,63.57
2019-02-23T09:56:45.244Z,63.79
2019-02-23T09:57:45.854Z,63.33
2019-02-23T09:58:46.402Z,63.28
2019-02-23T09:59:47.096Z,63.04
2019-02-23T10:00:48.017Z,63.75
2019-02-23T10:01:48.517Z,63.84
2019-02-23T10:02:49.072Z,63.70
2019-02-23T10:03:49.528Z,64.00
2019-02-23T10:04:50.108Z,64.37
2019-02-23T10:05:50.864Z,64.09
2019-02-23T10:05:59.901Z,64.22
2019-02-23T10:07:01.491Z,64.32
2019-02-23T10:08:02.067Z,64.29
2019-02-23T10:09:02.707Z,64.03
2019-02-23T10:10:03.438Z,63.83
2019-02-23T10:11:04.020Z,63.68
2019-02-23T10:12:04.559Z,63.61
2019-02-23T10:13:05.093Z,63.64
2019-02-23T10:14:07.472Z,63.21
2019-02-23T10:15:05.701Z,63.28
2019-02-23T10:16:07.482Z,63.28
2019-02-23T10:17:09.280Z,62.56
2019-02-23T10:18:07.940Z,62.99
2019-02-23T10:19:09.502Z,62.22
2019-02-23T10:20:10.421Z,62.07
2019-02-23T10:21:11.052Z,61.49
2019-02-23T10:22:11.947Z,61.74
2019-02-23T10:23:21.523Z,61.20
2019-02-23T10:24:12.501Z,61.46
2019-02-23T10:25:12.999Z,60.59
2019-02-23T10:26:14.584Z,61.11
2019-02-23T10:27:15.534Z,60.81
2019-02-23T10:28:16.007Z,61.01
2019-02-23T10:29:16.495Z,61.58
2019-02-23T10:30:17.092Z,61.09
2019-02-23T10:31:17.671Z,61.12
2019-02-23T10:32:18.565Z,61.87
2019-02-23T10:33:19.037Z,61.95
2019-02-23T10:34:19.712Z,62.05
2019-02-23T10:35:20.337Z,62.42
2019-02-23T10:36:21.132Z,61.73
2019-02-23T10:37:21.824Z,61.35
2019-02-23T10:38:22.824Z,61.89
2019-02-23T10:39:23.596Z,61.45
2019-02-23T10:40:23.784Z,62.44
2019-02-23T10:41:24.457Z,62.41
2019-02-23T10:42:24.919Z,63.23
2019-02-23T10:43:25.599Z,62.77
2019-02-23T10:44:26.200Z,62.21
2019-02-23T10:45:26.749Z,62.34
2019-02-23T10:46:27.371Z,62.01
2019-02-23T10:47:27.916Z,62.29
2019-02-23T10:48:28.683Z,61.91
2019-02-23T10:49:29.189Z,61.41
2019-02-23T10:50:29.687Z,60.81
2019-02-23T10:51:30.321Z,60.88
2019-02-23T10:52:30.814Z,59.86
2019-02-23T10:53:33.098Z,60.27
2019-02-23T10:53:40.465Z,61.03
2019-02-23T10:54:42.069Z,61.05
2019-02-23T10:55:42.683Z,60.81
2019-02-23T10:56:43.214Z,60.53
2019-02-23T10:57:43.695Z,60.40
2019-02-23T10:58:44.145Z,60.29
2019-02-23T10:59:44.726Z,60.10
2019-02-23T11:00:45.342Z,60.09
2019-02-23T11:01:44.989Z,60.54
2019-02-23T11:02:46.727Z,60.45
2019-02-23T11:03:47.280Z,60.43
2019-02-23T11:04:47.811Z,60.42
2019-02-23T11:05:48.421Z,60.47
2019-02-23T11:06:49.100Z,60.42
2019-02-23T11:07:49.834Z,59.43
2019-02-23T11:08:50.479Z,59.99
2019-02-23T11:09:51.092Z,60.17
2019-02-23T11:10:51.688Z,60.61
2019-02-23T11:11:52.293Z,61.65
2019-02-23T11:12:52.865Z,61.21
2019-02-23T11:13:53.827Z,61.92
2019-02-23T11:14:54.772Z,61.99
2019-02-23T11:15:55.523Z,61.59
2019-02-23T11:16:56.250Z,61.28
2019-02-23T11:17:56.919Z,61.50
2019-02-23T11:18:57.170Z,60.58
2019-02-23T11:19:57.341Z,60.82
2019-02-23T11:20:57.999Z,60.76
2019-02-23T11:21:58.770Z,61.09
2019-02-23T11:22:58.765Z,60.74
2019-02-23T11:23:59.267Z,61.18
2019-02-23T11:25:00.029Z,61.48
2019-02-23T11:26:00.602Z,60.48
2019-02-23T11:27:01.170Z,60.41
2019-02-23T11:28:01.573Z,60.32
2019-02-23T11:29:02.363Z,59.85
2019-02-23T11:30:02.840Z,59.78
2019-02-23T11:31:03.353Z,60.31
2019-02-23T11:32:04.164Z,60.28
2019-02-23T11:33:04.727Z,59.81
2019-02-23T11:34:05.346Z,59.47
2019-02-23T11:35:05.899Z,59.82
2019-02-23T11:36:06.523Z,59.90
2019-02-23T11:37:06.235Z,60.10
2019-02-23T11:38:07.654Z,60.00
2019-02-23T11:39:08.288Z,60.94
2019-02-23T11:40:09.158Z,62.45
2019-02-23T11:40:18.257Z,61.08
2019-02-23T11:41:19.727Z,61.13
2019-02-23T11:42:20.250Z,61.40
2019-02-23T11:43:21.025Z,61.94
2019-02-23T11:44:21.528Z,61.52
2019-02-23T11:45:22.199Z,61.07
2019-02-23T11:46:22.583Z,61.09
2019-02-23T11:47:23.329Z,61.05
2019-02-23T11:48:24.118Z,61.23
2019-02-23T11:49:24.655Z,60.99
2019-02-23T11:50:25.360Z,60.47
2019-02-23T11:51:27.225Z,60.32
2019-02-23T11:52:25.790Z,59.93
2019-02-23T11:53:27.278Z,60.25
2019-02-23T11:54:27.859Z,60.18
2019-02-23T11:55:28.671Z,60.75
2019-02-23T11:56:29.333Z,60.51
2019-02-23T11:57:29.774Z,60.41
2019-02-23T11:58:32.371Z,60.66
2019-02-23T11:59:31.209Z,59.98
2019-02-23T12:00:31.691Z,59.08
2019-02-23T12:01:32.315Z,59.52
2019-02-23T12:02:32.611Z,59.69
2019-02-23T12:03:33.253Z,60.80
2019-02-23T12:04:33.759Z,60.78
2019-02-23T12:05:34.400Z,61.01
2019-02-23T12:06:35.067Z,60.59
2019-02-23T12:07:35.784Z,61.43
2019-02-23T12:08:36.247Z,60.61
2019-02-23T12:09:37.095Z,60.34
2019-02-23T12:10:37.992Z,60.26
2019-02-23T12:11:38.537Z,61.45
2019-02-23T12:12:39.194Z,61.27
2019-02-23T12:13:39.966Z,59.03
2019-02-23T12:14:40.656Z,59.40
2019-02-23T12:15:41.461Z,60.67
2019-02-23T12:16:41.960Z,60.38
2019-02-23T12:17:42.630Z,60.00
2019-02-23T12:18:43.446Z,60.07
2019-02-23T12:19:44.081Z,60.24
2019-02-23T12:20:44.681Z,58.97
2019-02-23T12:21:45.246Z,58.20
2019-02-23T12:22:45.743Z,58.47
2019-02-23T12:23:46.261Z,58.97
2019-02-23T12:24:46.981Z,58.75
2019-02-23T12:24:56.070Z,58.70
2019-02-23T12:25:57.535Z,58.93
2019-02-23T12:26:58.057Z,59.46
2019-02-23T12:27:58.628Z,59.44
2019-02-23T12:28:59.180Z,60.11
2019-02-23T12:29:59.490Z,59.77
2019-02-23T12:31:00.014Z,58.91
2019-02-23T12:32:00.515Z,59.60
2019-02-23T12:33:00.966Z,59.26
2019-02-23T12:34:01.506Z,59.71
2019-02-23T12:35:02.086Z,59.37
2019-02-23T12:36:02.805Z,59.20
2019-02-23T12:37:03.429Z,58.22
2019-02-23T12:38:04.306Z,59.36
2019-02-23T12:39:04.524Z,58.60
2019-02-23T12:40:05.011Z,58.66
2019-02-23T12:41:05.718Z,58.56
2019-02-23T12:42:06.194Z,58.21
2019-02-23T12:43:06.768Z,57.73
2019-02-23T12:44:07.698Z,57.94
2019-02-23T12:45:08.496Z,58.28
2019-02-23T12:46:09.084Z,59.00
2019-02-23T12:47:10.059Z,59.10